< < Back
Terminal Aerodrome Forecast


Current Version              Previous Versions:   1  2  3  4  5  6  7  8  9  

Terminal Aerodrome Forecast

515
FTUS44 KMRX 060520
TAFTYS
TAF
KTYS 060520Z 0606/0706 24006KT P6SM BKN035
      TEMPO 0606/0609 BKN025
     FM061100 27009KT P6SM SCT050
     FM061500 35012G22KT P6SM BKN060
     FM070000 24006KT P6SM BKN060=

Latest METAR

234
SAUS80 KWBC 061800
MTRTYS
METAR KTYS 061753Z 36009KT 10SM SCT070 BKN090 18/04 A2994 RMK AO2 SLP134
T01780044 10189 20083 58008


USA.gov is the U.S. government's official web portal to all federal, state and local government web resources and services.